createdAt,value
2022-10-01T00:02:27.843Z,12.20
2022-10-01T00:05:29.446Z,11.97
2022-10-01T00:08:31.236Z,11.90
2022-10-01T00:11:37.321Z,11.20
2022-10-01T00:14:39.202Z,12.00
2022-10-01T00:17:41.471Z,11.90
2022-10-01T00:20:43.650Z,10.53
2022-10-01T00:23:46.148Z,10.02
2022-10-01T00:26:51.391Z,9.77
2022-10-01T00:29:53.993Z,10.23
2022-10-01T00:32:55.635Z,10.80
2022-10-01T00:35:57.200Z,9.97
2022-10-01T00:39:02.238Z,10.85
2022-10-01T00:42:05.391Z,9.75
2022-10-01T00:45:07.910Z,10.23
2022-10-01T00:48:09.499Z,10.10
2022-10-01T00:51:11.334Z,10.03
2022-10-01T00:54:14.930Z,9.82
2022-10-01T00:57:21.298Z,8.90
2022-10-01T01:00:23.085Z,8.75
2022-10-01T01:03:24.691Z,9.50
2022-10-01T01:06:26.287Z,9.60
2022-10-01T01:09:36.189Z,10.30
2022-10-01T01:13:11.646Z,10.75
2022-10-01T01:16:15.894Z,10.15
2022-10-01T01:19:20.800Z,9.93
2022-10-01T01:22:23.082Z,9.23
2022-10-01T01:25:29.090Z,9.75
2022-10-01T01:28:41.694Z,9.68
2022-10-01T01:31:46.423Z,10.43
2022-10-01T01:34:49.165Z,10.17
2022-10-01T01:37:53.631Z,9.33
2022-10-01T01:40:59.385Z,10.15
2022-10-01T01:44:02.358Z,9.85
2022-10-01T01:47:05.169Z,9.85
2022-10-01T01:50:08.212Z,10.00
2022-10-01T01:53:09.799Z,9.47
2022-10-01T01:56:11.377Z,9.80
2022-10-01T01:59:13.025Z,9.38
2022-10-01T02:02:22.862Z,9.57
2022-10-01T02:05:27.230Z,10.23
2022-10-01T02:08:37.495Z,10.30
2022-10-01T02:11:46.839Z,9.88
2022-10-01T02:14:54.837Z,9.70
2022-10-01T02:18:18.863Z,9.50
2022-10-01T02:21:28.440Z,9.73
2022-10-01T02:24:39.910Z,10.30
2022-10-01T02:27:45.353Z,9.30
2022-10-01T02:30:47.134Z,10.18
2022-10-01T02:33:48.778Z,10.30
2022-10-01T02:36:50.410Z,10.27
2022-10-01T02:39:52.892Z,10.63
2022-10-01T02:42:55.640Z,10.40
2022-10-01T02:45:59.406Z,10.85
2022-10-01T02:49:02.945Z,10.52
2022-10-01T02:52:13.524Z,10.73
2022-10-01T02:55:18.102Z,10.20
2022-10-01T02:58:19.774Z,11.30
2022-10-01T03:01:21.463Z,10.52
2022-10-01T03:04:23.107Z,10.90
2022-10-01T03:07:25.553Z,10.63
2022-10-01T03:10:27.135Z,10.67
2022-10-01T03:13:29.212Z,11.35
2022-10-01T03:16:30.852Z,12.00
2022-10-01T03:19:32.486Z,10.43
2022-10-01T03:22:34.091Z,10.70
2022-10-01T03:25:36.440Z,10.93
2022-10-01T03:28:38.037Z,11.38
2022-10-01T03:31:39.820Z,12.63
2022-10-01T03:34:41.494Z,11.00
2022-10-01T03:37:43.148Z,10.80
2022-10-01T03:40:44.752Z,10.23
2022-10-01T03:43:46.397Z,10.75
2022-10-01T03:46:48.038Z,11.75
2022-10-01T03:49:51.447Z,11.50
2022-10-01T03:52:53.035Z,10.80
2022-10-01T03:55:55.028Z,12.00
2022-10-01T03:58:56.686Z,11.35
2022-10-01T04:01:58.404Z,10.25
2022-10-01T04:05:00.041Z,11.10
2022-10-01T04:08:01.646Z,11.27
2022-10-01T04:11:03.378Z,10.87
2022-10-01T04:14:05.182Z,11.45
2022-10-01T04:17:06.809Z,11.65
2022-10-01T04:20:08.587Z,11.55
2022-10-01T04:23:10.177Z,11.03
2022-10-01T04:26:11.740Z,11.43
2022-10-01T04:29:13.345Z,12.18
2022-10-01T04:32:16.140Z,11.70
2022-10-01T04:35:17.750Z,11.07
2022-10-01T04:38:19.315Z,11.40
2022-10-01T04:41:20.990Z,11.87
2022-10-01T04:44:22.533Z,12.20
2022-10-01T04:47:24.209Z,12.88
2022-10-01T04:50:26.478Z,11.25
2022-10-01T04:53:28.382Z,12.23
2022-10-01T04:56:30.397Z,11.97
2022-10-01T04:59:32.383Z,13.15
2022-10-01T05:02:34.605Z,12.77
2022-10-01T05:05:36.358Z,12.18
2022-10-01T05:08:39.226Z,13.27
2022-10-01T05:11:40.855Z,12.17
2022-10-01T05:14:42.796Z,11.50
2022-10-01T05:17:48.662Z,12.63
2022-10-01T05:20:50.198Z,13.25
2022-10-01T05:23:52.546Z,14.27
2022-10-01T05:26:54.330Z,13.80
2022-10-01T05:29:56.969Z,13.77
2022-10-01T05:33:00.229Z,13.35
2022-10-01T05:36:02.282Z,13.55
2022-10-01T05:39:03.976Z,13.37
2022-10-01T05:42:06.468Z,13.10
2022-10-01T05:45:10.124Z,13.85
2022-10-01T05:48:12.878Z,13.10
2022-10-01T05:51:16.172Z,12.68
2022-10-01T05:54:19.554Z,12.43
2022-10-01T05:57:21.125Z,10.53
2022-10-01T06:00:23.037Z,11.63
2022-10-01T06:03:25.685Z,11.77
2022-10-01T06:06:27.406Z,12.20
2022-10-01T06:09:29.091Z,11.50
2022-10-01T06:12:30.768Z,11.93
2022-10-01T06:15:34.410Z,11.63
2022-10-01T06:18:36.001Z,11.15
2022-10-01T06:21:37.835Z,12.63
2022-10-01T06:24:41.212Z,12.40
2022-10-01T06:27:42.784Z,12.23
2022-10-01T06:30:44.380Z,12.82
2022-10-01T06:33:45.950Z,13.18
2022-10-01T06:36:47.567Z,12.57
2022-10-01T06:39:49.134Z,13.67
2022-10-01T06:42:54.807Z,12.20
2022-10-01T06:46:01.145Z,12.45
2022-10-01T06:49:02.744Z,12.07
2022-10-01T06:52:22.798Z,11.00
2022-10-01T06:55:34.510Z,11.23
2022-10-01T06:58:37.413Z,11.10
2022-10-01T07:01:39.300Z,10.55
2022-10-01T07:04:41.241Z,9.98
2022-10-01T07:07:44.585Z,9.95
2022-10-01T07:10:46.199Z,9.57
2022-10-01T07:13:52.320Z,9.03
2022-10-01T07:16:55.968Z,9.73
2022-10-01T07:19:57.530Z,10.82
2022-10-01T07:22:59.435Z,12.57
2022-10-01T07:26:03.290Z,14.57
2022-10-01T07:29:04.935Z,13.07
2022-10-01T07:32:08.933Z,14.25
2022-10-01T07:35:14.214Z,13.35
2022-10-01T07:38:15.809Z,13.63
2022-10-01T07:41:20.729Z,12.70
2022-10-01T07:44:22.310Z,11.40
2022-10-01T07:47:23.883Z,12.35
2022-10-01T07:50:29.156Z,17.60
2022-10-01T07:53:31.086Z,22.75
2022-10-01T07:56:32.665Z,24.33
2022-10-01T07:59:34.244Z,25.13
2022-10-01T08:02:37.533Z,32.25
2022-10-01T08:05:45.031Z,32.92
2022-10-01T08:08:46.808Z,31.80
2022-10-01T08:11:48.876Z,26.83
2022-10-01T08:14:50.513Z,23.00
2022-10-01T08:17:52.090Z,25.02
2022-10-01T08:20:57.316Z,18.13
2022-10-01T08:24:02.841Z,19.23
2022-10-01T08:27:04.412Z,15.67
2022-10-01T08:30:06.642Z,21.20
2022-10-01T08:33:10.351Z,27.70
2022-10-01T08:36:15.878Z,32.90
2022-10-01T08:39:17.687Z,21.65
2022-10-01T08:42:25.108Z,26.37
2022-10-01T08:45:39.498Z,23.70
2022-10-01T08:49:05.786Z,29.08
2022-10-01T08:52:13.799Z,28.67
2022-10-01T08:55:18.058Z,30.92
2022-10-01T08:58:23.915Z,27.97
2022-10-01T09:01:26.637Z,22.90
2022-10-01T09:04:28.413Z,23.58
2022-10-01T09:08:00.619Z,24.40
2022-10-01T09:11:06.064Z,23.85
2022-10-01T09:14:41.021Z,22.63
2022-10-01T09:17:53.235Z,18.13
2022-10-01T09:21:01.346Z,13.85
2022-10-01T09:24:45.093Z,13.43
2022-10-01T09:27:46.823Z,12.48
2022-10-01T09:31:16.937Z,13.23
2022-10-01T09:34:34.645Z,11.73
2022-10-01T09:37:51.245Z,11.98
2022-10-01T09:40:59.338Z,14.68
2022-10-01T09:44:01.894Z,11.10
2022-10-01T09:47:03.836Z,8.10
2022-10-01T09:50:06.571Z,7.30
2022-10-01T09:53:17.098Z,6.32
2022-10-01T09:56:34.125Z,8.50
2022-10-01T09:59:55.189Z,7.95
2022-10-01T10:02:56.896Z,9.00
2022-10-01T10:05:59.930Z,9.37
2022-10-01T10:09:02.044Z,16.67
2022-10-01T10:12:03.824Z,11.13
2022-10-01T10:15:09.453Z,13.02
2022-10-01T10:18:19.266Z,10.80
2022-10-01T10:21:38.043Z,10.80
2022-10-01T10:24:39.639Z,9.35
2022-10-01T10:27:51.304Z,8.75
2022-10-01T10:30:54.285Z,5.78
2022-10-01T10:34:21.670Z,4.60
2022-10-01T10:37:38.897Z,4.30
2022-10-01T10:40:42.265Z,5.30
2022-10-01T10:43:44.414Z,5.40
2022-10-01T10:46:47.710Z,4.60
2022-10-01T10:50:00.774Z,4.77
2022-10-01T10:53:22.235Z,3.33
2022-10-01T10:56:24.776Z,2.95
2022-10-01T10:59:28.938Z,2.70
2022-10-01T11:02:31.547Z,2.65
2022-10-01T11:05:34.013Z,2.40
2022-10-01T11:08:39.458Z,2.60
2022-10-01T11:11:58.479Z,2.28
2022-10-01T11:15:11.140Z,2.13
2022-10-01T11:18:37.847Z,2.25
2022-10-01T11:21:48.921Z,2.60
2022-10-01T11:24:56.554Z,2.47
2022-10-01T11:28:26.454Z,2.67
2022-10-01T11:31:28.120Z,2.95
2022-10-01T11:34:50.436Z,2.63
2022-10-01T11:38:17.142Z,2.80
2022-10-01T11:41:24.887Z,2.73
2022-10-01T11:44:39.442Z,2.80
2022-10-01T11:47:43.984Z,8.00
2022-10-01T11:50:47.027Z,18.60
2022-10-01T11:53:58.266Z,11.67
2022-10-01T11:57:18.355Z,8.70
2022-10-01T12:00:22.907Z,14.70
2022-10-01T12:03:30.558Z,6.53
2022-10-01T12:06:34.135Z,9.57
2022-10-01T12:09:35.990Z,4.67
2022-10-01T12:12:40.742Z,2.30
2022-10-01T12:15:48.109Z,2.08
2022-10-01T12:18:58.822Z,2.55
2022-10-01T12:22:20.251Z,2.70
2022-10-01T12:25:32.623Z,2.50
2022-10-01T12:28:41.316Z,2.60
2022-10-01T12:32:18.206Z,2.40
2022-10-01T12:35:35.756Z,3.17
2022-10-01T12:38:37.298Z,2.60
2022-10-01T12:41:51.917Z,2.57
2022-10-01T12:45:01.122Z,12.50
2022-10-01T12:48:21.082Z,24.67
2022-10-01T12:51:39.196Z,24.17
2022-10-01T12:54:59.021Z,12.23
2022-10-01T12:58:19.631Z,4.60
2022-10-01T13:01:28.074Z,3.70
2022-10-01T13:05:07.916Z,3.00
2022-10-01T13:08:18.181Z,4.80
2022-10-01T13:11:30.509Z,4.65
2022-10-01T13:14:33.193Z,2.90
2022-10-01T13:17:57.033Z,2.93
2022-10-01T13:21:33.979Z,2.30
2022-10-01T13:24:40.493Z,2.63
2022-10-01T13:28:17.378Z,2.50
2022-10-01T13:31:22.112Z,3.97
2022-10-01T13:34:40.748Z,3.93
2022-10-01T13:37:43.805Z,45.22
2022-10-01T13:40:45.430Z,46.20
2022-10-01T13:44:02.898Z,45.65
2022-10-01T13:47:10.047Z,43.40
2022-10-01T13:50:23.882Z,14.47
2022-10-01T13:53:26.427Z,16.73
2022-10-01T13:56:37.247Z,17.90
2022-10-01T13:59:43.101Z,10.20
2022-10-01T14:02:57.647Z,6.03
2022-10-01T14:05:59.239Z,4.60
2022-10-01T14:09:17.188Z,5.65
2022-10-01T14:12:50.440Z,4.65
2022-10-01T14:16:05.676Z,4.82
2022-10-01T14:19:08.232Z,3.93
2022-10-01T14:22:18.829Z,5.93
2022-10-01T14:25:26.020Z,11.88
2022-10-01T14:28:51.488Z,59.90
2022-10-01T14:32:10.660Z,36.42
2022-10-01T14:35:37.049Z,27.70
2022-10-01T14:38:38.614Z,18.27
2022-10-01T14:41:43.762Z,18.08
2022-10-01T14:44:50.186Z,18.52
2022-10-01T14:48:05.168Z,14.43
2022-10-01T14:51:21.043Z,14.73
2022-10-01T14:54:22.716Z,14.20
2022-10-01T14:57:32.085Z,11.15
2022-10-01T15:00:37.584Z,10.38
2022-10-01T15:03:40.337Z,10.02
2022-10-01T15:06:42.355Z,9.60
2022-10-01T15:09:44.900Z,7.30
2022-10-01T15:12:50.662Z,6.75
2022-10-01T15:15:52.268Z,5.78
2022-10-01T15:18:56.570Z,5.00
2022-10-01T15:21:59.086Z,5.50
2022-10-01T15:25:01.035Z,5.07
2022-10-01T15:28:17.380Z,6.60
2022-10-01T15:31:20.155Z,7.97
2022-10-01T15:34:22.432Z,6.88
2022-10-01T15:37:47.979Z,7.47
2022-10-01T15:41:05.016Z,8.73
2022-10-01T15:44:41.596Z,8.23
2022-10-01T15:47:51.883Z,9.38
2022-10-01T15:50:58.673Z,8.38
2022-10-01T15:54:06.758Z,9.40
2022-10-01T15:57:08.337Z,9.67
2022-10-01T16:00:36.259Z,9.23
2022-10-01T16:03:47.506Z,10.18
2022-10-01T16:06:51.508Z,12.05
2022-10-01T16:09:56.570Z,11.80
2022-10-01T16:13:01.875Z,11.97
2022-10-01T16:16:17.296Z,12.38
2022-10-01T16:19:22.421Z,11.30
2022-10-01T16:22:33.989Z,12.07
2022-10-01T16:25:35.580Z,10.97
2022-10-01T16:28:41.141Z,10.30
2022-10-01T16:31:48.590Z,10.68
2022-10-01T16:34:50.456Z,9.23
2022-10-01T16:37:53.432Z,7.97
2022-10-01T16:40:55.030Z,8.40
2022-10-01T16:43:59.695Z,7.03
2022-10-01T16:47:01.243Z,7.13
2022-10-01T16:50:02.841Z,7.80
2022-10-01T16:53:04.738Z,6.93
2022-10-01T16:56:06.473Z,6.70
2022-10-01T16:59:11.047Z,6.43
2022-10-01T17:02:13.377Z,5.70
2022-10-01T17:05:37.072Z,5.60
2022-10-01T17:08:38.638Z,6.28
2022-10-01T17:11:40.921Z,5.73
2022-10-01T17:14:42.769Z,5.77
2022-10-01T17:17:45.257Z,4.85
2022-10-01T17:20:46.905Z,5.10
2022-10-01T17:23:53.221Z,4.57
2022-10-01T17:26:55.366Z,5.10
2022-10-01T17:30:00.790Z,4.47
2022-10-01T17:33:02.426Z,4.03
2022-10-01T17:36:06.638Z,3.88
2022-10-01T17:39:08.349Z,3.97
2022-10-01T17:42:10.126Z,3.80
2022-10-01T17:45:15.753Z,3.50
2022-10-01T17:48:21.606Z,3.40
2022-10-01T17:51:23.848Z,3.28
2022-10-01T17:54:25.676Z,3.22
2022-10-01T17:57:28.843Z,3.47
2022-10-01T18:00:34.306Z,3.13
2022-10-01T18:03:36.427Z,2.75
2022-10-01T18:06:38.016Z,2.95
2022-10-01T18:09:42.236Z,3.35
2022-10-01T18:12:43.829Z,3.10
2022-10-01T18:15:45.446Z,2.60
2022-10-01T18:22:14.367Z,2.95
2022-10-01T18:25:16.345Z,3.13
2022-10-01T18:28:19.051Z,3.30
2022-10-01T18:31:31.263Z,2.83
2022-10-01T18:34:42.223Z,2.40
2022-10-01T18:37:50.326Z,2.88
2022-10-01T18:40:56.307Z,2.90
2022-10-01T18:43:58.338Z,3.60
2022-10-01T18:47:11.414Z,3.13
2022-10-01T18:50:41.240Z,3.40
2022-10-01T18:54:04.635Z,2.80
2022-10-01T18:57:21.504Z,3.67
2022-10-01T19:00:27.488Z,3.80
2022-10-01T19:03:54.039Z,3.03
2022-10-01T19:07:03.522Z,3.22
2022-10-01T19:10:29.850Z,2.30
2022-10-01T19:13:56.617Z,2.10
2022-10-01T19:17:19.746Z,2.10
2022-10-01T19:20:56.811Z,1.87
2022-10-01T19:24:20.467Z,2.30
2022-10-01T19:27:31.098Z,2.60
2022-10-01T19:30:57.459Z,2.70
2022-10-01T19:34:11.989Z,3.20
2022-10-01T19:37:37.797Z,3.50
2022-10-01T19:41:03.864Z,3.55
2022-10-01T19:44:23.847Z,3.75
2022-10-01T19:47:38.398Z,3.67
2022-10-01T19:50:43.277Z,4.70
2022-10-01T19:53:46.873Z,3.73
2022-10-01T19:56:54.108Z,3.78
2022-10-01T19:59:57.059Z,3.92
2022-10-01T20:03:14.980Z,4.32
2022-10-01T20:06:47.963Z,4.57
2022-10-01T20:10:05.753Z,4.40
2022-10-01T20:13:35.174Z,4.80
2022-10-01T20:16:45.157Z,3.97
2022-10-01T20:20:13.159Z,3.78
2022-10-01T20:23:33.524Z,3.37
2022-10-01T20:26:48.085Z,3.97
2022-10-01T20:30:00.685Z,3.60
2022-10-01T20:33:27.343Z,4.20
2022-10-01T20:36:46.567Z,3.97
2022-10-01T20:39:50.893Z,3.40
2022-10-01T20:43:10.177Z,3.30
2022-10-01T20:46:32.693Z,3.30
2022-10-01T20:49:47.520Z,3.22
2022-10-01T20:53:17.412Z,3.35
2022-10-01T20:56:26.158Z,3.43
2022-10-01T20:59:30.203Z,3.17
2022-10-01T21:02:44.649Z,3.70
2022-10-01T21:05:50.845Z,3.38
2022-10-01T21:09:22.829Z,3.25
2022-10-01T21:12:28.467Z,3.43
2022-10-01T21:15:35.475Z,3.77
2022-10-01T21:18:53.672Z,4.00
2022-10-01T21:22:04.268Z,3.30
2022-10-01T21:25:24.844Z,4.20
2022-10-01T21:28:39.609Z,4.10
2022-10-01T21:32:16.540Z,4.13
2022-10-01T21:35:36.860Z,4.22
2022-10-01T21:38:54.739Z,4.60
2022-10-01T21:42:04.112Z,3.70
2022-10-01T21:45:11.950Z,4.27
2022-10-01T21:48:31.843Z,3.90
2022-10-01T21:51:51.686Z,4.30
2022-10-01T21:55:05.272Z,4.40
2022-10-01T21:58:24.565Z,5.05
2022-10-01T22:01:36.575Z,4.90
2022-10-01T22:04:48.948Z,4.90
2022-10-01T22:08:20.031Z,4.53
2022-10-01T22:11:27.883Z,5.00
2022-10-01T22:14:29.611Z,5.60
2022-10-01T22:17:32.066Z,4.83
2022-10-01T22:20:40.762Z,5.00
2022-10-01T22:23:45.256Z,4.90
2022-10-01T22:26:53.954Z,4.82
2022-10-01T22:30:16.278Z,4.60
2022-10-01T22:33:40.794Z,4.60
2022-10-01T22:36:51.603Z,4.43
2022-10-01T22:40:27.561Z,4.45
2022-10-01T22:43:29.417Z,4.43
2022-10-01T22:46:55.695Z,4.25
2022-10-01T22:50:12.185Z,4.60
2022-10-01T22:53:16.800Z,4.93
2022-10-01T22:56:27.730Z,4.50
2022-10-01T22:59:48.144Z,4.78
2022-10-01T23:03:01.695Z,4.30
2022-10-01T23:06:14.670Z,4.57
2022-10-01T23:10:08.851Z,4.10
2022-10-01T23:13:26.783Z,3.70
2022-10-01T23:16:40.545Z,3.60
2022-10-01T23:20:01.208Z,3.60
2022-10-01T23:23:29.596Z,3.77
2022-10-01T23:26:43.239Z,3.90
2022-10-01T23:30:03.805Z,3.80
2022-10-01T23:33:24.997Z,4.15
2022-10-01T23:36:37.843Z,4.30
2022-10-01T23:39:52.316Z,4.27
2022-10-01T23:43:10.754Z,4.23
2022-10-01T23:46:14.753Z,4.22
2022-10-01T23:49:17.339Z,3.72
2022-10-01T23:52:46.607Z,3.30
2022-10-01T23:56:27.906Z,3.27
2022-10-01T23:59:43.091Z,3.23
